Time;durP1;ratioP1;P1;durP2;ratioP2;P2;SDS_P1;SDS_P2;PMS_P1;PMS_P2;Temp;Humidity;BMP_temperature;BMP_pressure;BME280_temperature;BME280_humidity;BME280_pressure;Samples;Min_cycle;Max_cycle;Signal;HPM_P1;HPM_P2
2022/08/21 00:00:05;;;;;;;0.50;0.50;;;;;;;;;;1020139;29;20035;-76
2022/08/21 00:00:37;;;;;;;2.38;1.00;;;;;;;;;;1020102;29;20027;-76
2022/08/21 00:01:10;;;;;;;2.42;0.90;;;;;;;;;;1023682;28;20023;-76
2022/08/21 00:01:41;;;;;;;10.50;1.00;;;;;;;;;;1019803;29;20028;-76
2022/08/21 00:02:15;;;;;;;0.50;0.45;;;;;;;;;;1019731;29;20020;-76
2022/08/21 00:02:48;;;;;;;2.13;0.50;;;;;;;;;;1019983;29;20084;-76
2022/08/21 00:03:19;;;;;;;2.83;2.10;;;;;;;;;;1019716;29;20034;-76
2022/08/21 00:03:50;;;;;;;3.80;1.05;;;;;;;;;;1020267;29;20031;-76
2022/08/21 00:04:21;;;;;;;1.13;0.50;;;;;;;;;;1019910;29;20488;-76
2022/08/21 00:04:51;;;;;;;1.55;0.70;;;;;;;;;;1021215;29;20032;-76
2022/08/21 00:05:23;;;;;;;10.07;0.77;;;;;;;;;;1024015;28;20042;-76
2022/08/21 00:05:53;;;;;;;1.50;0.77;;;;;;;;;;1024216;28;20169;-76
2022/08/21 00:06:24;;;;;;;5.40;0.82;;;;;;;;;;1023566;29;20082;-76
2022/08/21 00:06:55;;;;;;;9.23;0.70;;;;;;;;;;1023880;28;20390;-76
2022/08/21 00:07:25;;;;;;;1.25;0.47;;;;;;;;;;1023746;29;20126;-76
2022/08/21 00:07:56;;;;;;;4.68;0.98;;;;;;;;;;1023794;29;20439;-76
2022/08/21 00:08:27;;;;;;;1.33;0.60;;;;;;;;;;1024151;28;20031;-76
2022/08/21 00:08:57;;;;;;;5.60;1.60;;;;;;;;;;1024075;28;20034;-76
2022/08/21 00:09:28;;;;;;;4.43;0.88;;;;;;;;;;1024107;29;20156;-76
2022/08/21 00:09:58;;;;;;;4.30;0.80;;;;;;;;;;1024111;28;20128;-76
2022/08/21 00:10:29;;;;;;;4.15;1.75;;;;;;;;;;1024098;29;20015;-76
2022/08/21 00:11:00;;;;;;;7.32;1.38;;;;;;;;;;1024028;28;20030;-76
2022/08/21 00:11:31;;;;;;;1.80;0.55;;;;;;;;;;1024063;28;20384;-76
2022/08/21 00:12:02;;;;;;;2.78;0.90;;;;;;;;;;1024045;28;20058;-76
2022/08/21 00:12:32;;;;;;;2.75;0.50;;;;;;;;;;1024081;28;20495;-76
2022/08/21 00:13:04;;;;;;;5.90;0.85;;;;;;;;;;1024129;28;20035;-76
2022/08/21 00:13:36;;;;;;;2.60;0.50;;;;;;;;;;1024115;28;20035;-76
2022/08/21 00:14:07;;;;;;;4.57;1.10;;;;;;;;;;1024020;28;20106;-76
2022/08/21 00:14:38;;;;;;;1.55;0.50;;;;;;;;;;1024129;28;20031;-76
2022/08/21 00:15:09;;;;;;;20.15;1.48;;;;;;;;;;1023640;29;20023;-76
2022/08/21 00:15:40;;;;;;;26.10;1.77;;;;;;;;;;1023797;29;20066;-76
2022/08/21 00:16:11;;;;;;;7.78;0.88;;;;;;;;;;1023673;29;20030;-76
2022/08/21 00:16:42;;;;;;;18.85;1.65;;;;;;;;;;1020085;29;20054;-76
2022/08/21 00:17:12;;;;;;;5.63;0.90;;;;;;;;;;1023622;28;20035;-76
2022/08/21 00:17:43;;;;;;;2.17;0.77;;;;;;;;;;1023826;29;20023;-76
2022/08/21 00:18:14;;;;;;;2.65;0.85;;;;;;;;;;1023687;29;20447;-76
2022/08/21 00:18:44;;;;;;;1.88;0.60;;;;;;;;;;1024139;28;20114;-76
2022/08/21 00:19:15;;;;;;;14.35;1.35;;;;;;;;;;1023912;29;20621;-76
2022/08/21 00:19:45;;;;;;;2.45;0.63;;;;;;;;;;1024130;28;20081;-76
2022/08/21 00:20:16;;;;;;;1.65;0.57;;;;;;;;;;1023526;29;20038;-76
2022/08/21 00:20:47;;;;;;;2.35;1.27;;;;;;;;;;1023790;29;20456;-76
2022/08/21 00:21:18;;;;;;;2.20;0.80;;;;;;;;;;1019594;29;20130;-76
2022/08/21 00:21:48;;;;;;;1.67;0.60;;;;;;;;;;1015940;29;20123;-76
2022/08/21 00:22:19;;;;;;;8.43;0.90;;;;;;;;;;1019604;29;20520;-76
2022/08/21 00:22:50;;;;;;;6.63;1.45;;;;;;;;;;1020017;29;20432;-76
2022/08/21 00:23:21;;;;;;;8.35;0.88;;;;;;;;;;1023622;29;20169;-76
2022/08/21 00:23:51;;;;;;;4.53;0.93;;;;;;;;;;1024128;28;20031;-76
2022/08/21 00:24:22;;;;;;;2.72;0.57;;;;;;;;;;1024026;28;20662;-76
2022/08/21 00:24:53;;;;;;;6.47;1.08;;;;;;;;;;1024165;28;20494;-76
2022/08/21 00:25:23;;;;;;;10.63;1.88;;;;;;;;;;1023958;28;20380;-76
2022/08/21 00:25:54;;;;;;;2.72;0.80;;;;;;;;;;1023878;29;20038;-76
2022/08/21 00:26:24;;;;;;;2.92;1.73;;;;;;;;;;1023579;29;20070;-76
2022/08/21 00:26:55;;;;;;;7.35;0.82;;;;;;;;;;1023798;28;20550;-76
2022/08/21 00:27:26;;;;;;;7.43;1.58;;;;;;;;;;1023685;29;20031;-76
2022/08/21 00:27:56;;;;;;;3.08;0.85;;;;;;;;;;1024098;28;20487;-76
2022/08/21 00:28:27;;;;;;;2.95;0.80;;;;;;;;;;1024003;28;20032;-76
2022/08/21 00:28:58;;;;;;;2.55;1.10;;;;;;;;;;1024067;28;20392;-76
2022/08/21 00:29:28;;;;;;;3.90;0.85;;;;;;;;;;1024009;28;20034;-76
2022/08/21 00:29:59;;;;;;;1.10;0.73;;;;;;;;;;1023987;28;20035;-76
2022/08/21 00:30:31;;;;;;;8.48;2.13;;;;;;;;;;1024051;28;20023;-76
2022/08/21 00:31:03;;;;;;;4.40;0.65;;;;;;;;;;1024018;28;20392;-76
2022/08/21 00:31:34;;;;;;;2.78;1.08;;;;;;;;;;1024074;28;20114;-76
2022/08/21 00:32:04;;;;;;;6.75;0.77;;;;;;;;;;1023900;28;20472;-76
2022/08/21 00:32:36;;;;;;;8.55;0.70;;;;;;;;;;1023997;28;20063;-76
2022/08/21 00:33:08;;;;;;;7.78;0.93;;;;;;;;;;1023944;28;20114;-76
2022/08/21 00:33:38;;;;;;;11.30;1.55;;;;;;;;;;1024072;28;20034;-76
2022/08/21 00:34:10;;;;;;;7.82;0.82;;;;;;;;;;1024004;29;20026;-76
2022/08/21 00:34:40;;;;;;;2.78;0.75;;;;;;;;;;1024077;28;20042;-76
2022/08/21 00:35:13;;;;;;;3.70;1.27;;;;;;;;;;1023947;28;20027;-76
2022/08/21 00:35:44;;;;;;;11.40;1.77;;;;;;;;;;1024179;28;20035;-76
2022/08/21 00:36:15;;;;;;;2.00;0.65;;;;;;;;;;1023909;28;20031;-76
2022/08/21 00:36:45;;;;;;;5.10;1.35;;;;;;;;;;1024016;28;20031;-76
2022/08/21 00:37:16;;;;;;;2.85;1.20;;;;;;;;;;1023511;29;20109;-76
2022/08/21 00:37:46;;;;;;;4.32;0.82;;;;;;;;;;1023830;29;20031;-76
2022/08/21 00:38:17;;;;;;;5.50;1.25;;;;;;;;;;1023601;29;20030;-76
2022/08/21 00:38:48;;;;;;;2.67;0.90;;;;;;;;;;1023840;29;20035;-76
2022/08/21 00:39:18;;;;;;;4.90;0.50;;;;;;;;;;1023897;28;20114;-76
2022/08/21 00:39:49;;;;;;;4.85;1.00;;;;;;;;;;1024134;28;20050;-76
2022/08/21 00:40:24;;;;;;;4.13;0.85;;;;;;;;;;1023448;29;20514;-76
2022/08/21 00:40:56;;;;;;;3.42;1.13;;;;;;;;;;1023865;29;20142;-76
2022/08/21 00:41:27;;;;;;;8.40;1.52;;;;;;;;;;1019720;29;20373;-76
2022/08/21 00:41:57;;;;;;;2.83;0.75;;;;;;;;;;1020501;29;20054;-76
2022/08/21 00:42:30;;;;;;;22.05;3.00;;;;;;;;;;1023737;29;20114;-76
2022/08/21 00:43:02;;;;;;;10.88;1.83;;;;;;;;;;1023692;29;20031;-76
2022/08/21 00:43:34;;;;;;;4.80;1.45;;;;;;;;;;1023763;29;20039;-76
2022/08/21 00:44:06;;;;;;;1.48;0.95;;;;;;;;;;1023523;29;20031;-76
2022/08/21 00:44:37;;;;;;;11.13;1.42;;;;;;;;;;1023776;29;20083;-77
2022/08/21 00:45:08;;;;;;;7.80;1.20;;;;;;;;;;1023681;29;20039;-76
2022/08/21 00:45:39;;;;;;;2.47;0.63;;;;;;;;;;1023826;29;20035;-76
2022/08/21 00:46:09;;;;;;;7.60;2.03;;;;;;;;;;1023533;29;20519;-76
2022/08/21 00:46:40;;;;;;;2.58;1.13;;;;;;;;;;1023748;29;20035;-76
2022/08/21 00:47:11;;;;;;;2.28;0.75;;;;;;;;;;1023527;28;20033;-76
2022/08/21 00:47:42;;;;;;;3.28;1.05;;;;;;;;;;1019925;29;20039;-76
2022/08/21 00:48:12;;;;;;;1.70;0.73;;;;;;;;;;1023593;29;20163;-76
2022/08/21 00:48:43;;;;;;;8.43;1.20;;;;;;;;;;1023749;29;20088;-76
2022/08/21 00:49:14;;;;;;;5.15;1.00;;;;;;;;;;1023582;29;20031;-76
2022/08/21 00:49:45;;;;;;;6.13;1.50;;;;;;;;;;1024086;28;20094;-76
2022/08/21 00:50:15;;;;;;;9.57;1.25;;;;;;;;;;1023457;29;20538;-76
2022/08/21 00:50:49;;;;;;;5.20;1.15;;;;;;;;;;1023784;29;20027;-76
2022/08/21 00:51:25;;;;;;;3.42;1.15;;;;;;;;;;1023599;29;20440;-76
2022/08/21 00:51:59;;;;;;;3.45;1.38;;;;;;;;;;1023759;28;20027;-76
2022/08/21 00:52:31;;;;;;;1.45;0.70;;;;;;;;;;1023639;29;20399;-76
2022/08/21 00:53:05;;;;;;;1.30;0.55;;;;;;;;;;1023658;29;20089;-76
2022/08/21 00:53:40;;;;;;;9.40;1.85;;;;;;;;;;1023718;29;20020;-76
2022/08/21 00:54:11;;;;;;;4.72;1.15;;;;;;;;;;1023758;29;20500;-76
2022/08/21 00:54:42;;;;;;;5.32;1.20;;;;;;;;;;1024009;28;20087;-76
2022/08/21 00:55:13;;;;;;;12.60;1.73;;;;;;;;;;1023955;28;20078;-76
2022/08/21 00:55:44;;;;;;;8.05;1.60;;;;;;;;;;1024084;28;20514;-76
2022/08/21 00:56:15;;;;;;;5.50;1.00;;;;;;;;;;1023841;28;20023;-76
2022/08/21 00:56:47;;;;;;;7.38;1.50;;;;;;;;;;1024083;28;20031;-76
2022/08/21 00:57:23;;;;;;;11.82;1.40;;;;;;;;;;1023857;28;20027;-76
2022/08/21 00:57:56;;;;;;;5.22;0.90;;;;;;;;;;1023728;29;20503;-76
2022/08/21 00:58:27;;;;;;;2.42;0.88;;;;;;;;;;1023663;29;20023;-76
2022/08/21 00:58:58;;;;;;;5.95;1.02;;;;;;;;;;1023742;29;20411;-76
2022/08/21 00:59:31;;;;;;;9.70;0.75;;;;;;;;;;1023109;29;20024;-76
2022/08/21 01:00:04;;;;;;;4.53;1.80;;;;;;;;;;1023564;29;20031;-76
2022/08/21 01:00:38;;;;;;;7.20;1.25;;;;;;;;;;1023685;29;20046;-76
2022/08/21 01:01:08;;;;;;;2.90;0.88;;;;;;;;;;1023597;29;20117;-76
2022/08/21 01:01:39;;;;;;;5.38;1.40;;;;;;;;;;1022933;29;20403;-76
2022/08/21 01:02:10;;;;;;;2.60;1.15;;;;;;;;;;1019754;29;20082;-76
2022/08/21 01:02:41;;;;;;;8.30;1.50;;;;;;;;;;1020044;29;20028;-76
2022/08/21 01:03:13;;;;;;;6.20;0.93;;;;;;;;;;1019931;29;20035;-76
2022/08/21 01:03:45;;;;;;;1.55;0.93;;;;;;;;;;1020103;29;20041;-76
2022/08/21 01:04:16;;;;;;;6.53;0.70;;;;;;;;;;1019539;29;20385;-76
2022/08/21 01:04:46;;;;;;;2.95;0.80;;;;;;;;;;1020193;29;20389;-76
2022/08/21 01:05:17;;;;;;;4.40;1.23;;;;;;;;;;1023552;29;20070;-76
2022/08/21 01:05:48;;;;;;;2.17;0.70;;;;;;;;;;1019919;29;20516;-76
2022/08/21 01:06:18;;;;;;;5.65;1.90;;;;;;;;;;1019472;29;20039;-76
2022/08/21 01:06:49;;;;;;;2.60;1.00;;;;;;;;;;1015701;29;20028;-76
2022/08/21 01:07:19;;;;;;;7.55;1.38;;;;;;;;;;1015716;29;20126;-76
2022/08/21 01:07:50;;;;;;;2.72;0.60;;;;;;;;;;1019920;29;20024;-76
2022/08/21 01:08:21;;;;;;;3.63;1.00;;;;;;;;;;1023477;29;20037;-76
2022/08/21 01:08:52;;;;;;;3.72;1.45;;;;;;;;;;1024087;28;20495;-76
2022/08/21 01:09:23;;;;;;;4.55;0.93;;;;;;;;;;1023803;28;20049;-76
2022/08/21 01:09:53;;;;;;;16.52;1.80;;;;;;;;;;1024094;28;20034;-76
2022/08/21 01:10:24;;;;;;;1.95;1.20;;;;;;;;;;1023925;28;20062;-76
2022/08/21 01:10:55;;;;;;;2.95;1.15;;;;;;;;;;1023682;29;20078;-76
2022/08/21 01:11:26;;;;;;;5.65;1.98;;;;;;;;;;1023581;29;20114;-76
2022/08/21 01:11:56;;;;;;;8.68;1.30;;;;;;;;;;1023653;28;20629;-76
2022/08/21 01:12:27;;;;;;;9.00;1.58;;;;;;;;;;1023616;29;20118;-76
2022/08/21 01:12:58;;;;;;;8.85;1.85;;;;;;;;;;1023981;28;20024;-76
2022/08/21 01:13:30;;;;;;;2.92;1.10;;;;;;;;;;1023567;29;20126;-76
2022/08/21 01:14:00;;;;;;;4.78;1.40;;;;;;;;;;1023667;29;20062;-76
2022/08/21 01:14:31;;;;;;;7.28;1.30;;;;;;;;;;1023620;29;20107;-76
2022/08/21 01:15:04;;;;;;;10.77;1.17;;;;;;;;;;1023635;29;20461;-76
2022/08/21 01:15:36;;;;;;;2.60;1.25;;;;;;;;;;1023541;29;20467;-76
2022/08/21 01:16:09;;;;;;;4.75;1.23;;;;;;;;;;1023614;28;20493;-76
2022/08/21 01:16:42;;;;;;;3.90;1.13;;;;;;;;;;1024121;29;20031;-76
2022/08/21 01:17:14;;;;;;;4.82;1.83;;;;;;;;;;1024396;29;20410;-76
2022/08/21 01:17:44;;;;;;;7.05;1.70;;;;;;;;;;1024459;29;20139;-76
2022/08/21 01:18:16;;;;;;;2.55;0.90;;;;;;;;;;1024342;29;20609;-76
2022/08/21 01:18:47;;;;;;;10.00;1.08;;;;;;;;;;1024549;29;20027;-76
2022/08/21 01:19:19;;;;;;;5.32;1.10;;;;;;;;;;1024298;29;20133;-76
2022/08/21 01:19:50;;;;;;;2.55;0.88;;;;;;;;;;1024864;28;20471;-76
2022/08/21 01:20:20;;;;;;;6.50;0.95;;;;;;;;;;1024186;29;20054;-76
2022/08/21 01:21:05;;;;;;;2.88;0.88;;;;;;;;;;1024426;29;20034;-76
2022/08/21 01:21:36;;;;;;;3.17;1.08;;;;;;;;;;1024467;29;20122;-76
2022/08/21 01:22:07;;;;;;;6.57;1.65;;;;;;;;;;1024317;28;20075;-76
2022/08/21 01:22:38;;;;;;;2.80;0.73;;;;;;;;;;1024823;28;20031;-76
2022/08/21 01:23:09;;;;;;;2.28;0.73;;;;;;;;;;1024323;29;20395;-76
2022/08/21 01:23:41;;;;;;;1.73;0.85;;;;;;;;;;1024479;29;20058;-76
2022/08/21 01:24:12;;;;;;;6.43;1.38;;;;;;;;;;1020256;29;20404;-76
2022/08/21 01:24:43;;;;;;;2.05;1.17;;;;;;;;;;1020938;29;20079;-76
2022/08/21 01:25:15;;;;;;;13.52;1.33;;;;;;;;;;1024309;29;20034;-76
2022/08/21 01:25:46;;;;;;;12.98;1.08;;;;;;;;;;1024506;29;20082;-76
2022/08/21 01:26:18;;;;;;;18.00;1.50;;;;;;;;;;1024553;28;20035;-76
2022/08/21 01:26:49;;;;;;;2.75;1.15;;;;;;;;;;1024706;28;20078;-76
2022/08/21 01:27:20;;;;;;;9.02;1.17;;;;;;;;;;1024576;28;20163;-76
2022/08/21 01:27:51;;;;;;;3.67;1.38;;;;;;;;;;1024755;28;20074;-76
2022/08/21 01:28:22;;;;;;;2.60;1.02;;;;;;;;;;1024571;28;20396;-76
2022/08/21 01:29:13;;;;;;;6.45;1.50;;;;;;;;;;1024769;28;20046;-76
2022/08/21 01:29:43;;;;;;;1.77;1.00;;;;;;;;;;1027756;28;20118;-76
2022/08/21 01:30:20;;;;;;;2.10;1.05;;;;;;;;;;1028257;28;20038;-76
2022/08/21 01:30:51;;;;;;;5.45;1.20;;;;;;;;;;1024423;29;20063;-76
2022/08/21 01:31:23;;;;;;;7.10;1.58;;;;;;;;;;1020176;29;20024;-76
2022/08/21 01:31:54;;;;;;;5.95;1.15;;;;;;;;;;1020426;29;20090;-76
2022/08/21 01:32:25;;;;;;;8.32;1.98;;;;;;;;;;1020534;29;20036;-76
2022/08/21 01:32:56;;;;;;;6.45;1.30;;;;;;;;;;1024404;29;20038;-76
2022/08/21 01:33:27;;;;;;;3.53;1.40;;;;;;;;;;1024188;29;20387;-76
2022/08/21 01:33:58;;;;;;;15.38;1.95;;;;;;;;;;1024395;29;20034;-76
2022/08/21 01:34:28;;;;;;;7.80;1.92;;;;;;;;;;1024355;29;20027;-76
2022/08/21 01:34:59;;;;;;;2.80;1.02;;;;;;;;;;1024362;29;20054;-76
2022/08/21 01:35:30;;;;;;;7.32;1.70;;;;;;;;;;1024669;28;20467;-76
2022/08/21 01:36:00;;;;;;;5.20;1.63;;;;;;;;;;1024663;28;20062;-76
2022/08/21 01:36:31;;;;;;;2.53;1.13;;;;;;;;;;1024668;28;20129;-76
2022/08/21 01:37:02;;;;;;;4.53;1.40;;;;;;;;;;1024179;28;20023;-76
2022/08/21 01:37:33;;;;;;;5.78;0.80;;;;;;;;;;1024353;29;20039;-76
2022/08/21 01:38:04;;;;;;;12.27;1.50;;;;;;;;;;1024329;29;20031;-76
2022/08/21 01:38:34;;;;;;;4.38;1.75;;;;;;;;;;1020604;29;20027;-76
2022/08/21 01:39:05;;;;;;;4.43;1.55;;;;;;;;;;1020223;29;20039;-76
2022/08/21 01:39:36;;;;;;;3.15;1.30;;;;;;;;;;1020447;29;20032;-76
2022/08/21 01:40:08;;;;;;;4.63;1.63;;;;;;;;;;1020558;29;20024;-76
2022/08/21 01:40:39;;;;;;;4.20;1.83;;;;;;;;;;1024332;29;20032;-76
2022/08/21 01:41:09;;;;;;;4.25;1.85;;;;;;;;;;1024579;28;20551;-76
2022/08/21 01:41:40;;;;;;;6.10;1.40;;;;;;;;;;1024659;28;20034;-76
2022/08/21 01:42:11;;;;;;;5.53;1.40;;;;;;;;;;1024508;28;20533;-76
2022/08/21 01:42:43;;;;;;;13.65;1.67;;;;;;;;;;1024279;29;20031;-76
2022/08/21 01:43:13;;;;;;;8.18;1.73;;;;;;;;;;1024126;29;20029;-76
2022/08/21 01:43:44;;;;;;;2.25;1.00;;;;;;;;;;1024271;29;20035;-76
2022/08/21 01:44:15;;;;;;;8.68;1.30;;;;;;;;;;1024183;29;20474;-76
2022/08/21 01:44:46;;;;;;;3.15;0.95;;;;;;;;;;1024445;29;20594;-76
2022/08/21 01:45:16;;;;;;;3.40;1.45;;;;;;;;;;1024189;29;20059;-76
2022/08/21 01:45:47;;;;;;;18.02;2.00;;;;;;;;;;1024816;28;20027;-76
2022/08/21 01:46:18;;;;;;;5.75;1.48;;;;;;;;;;1024501;28;20031;-76
2022/08/21 01:46:49;;;;;;;26.00;2.20;;;;;;;;;;1024657;28;20029;-76
2022/08/21 01:47:19;;;;;;;12.88;1.17;;;;;;;;;;1024487;28;20490;-76
2022/08/21 01:47:50;;;;;;;7.72;1.35;;;;;;;;;;1024768;28;20027;-76
2022/08/21 01:48:20;;;;;;;15.75;2.05;;;;;;;;;;1024469;28;20027;-76
2022/08/21 01:48:51;;;;;;;2.67;1.10;;;;;;;;;;1024734;28;20027;-76
2022/08/21 01:49:21;;;;;;;2.90;1.17;;;;;;;;;;1024526;28;20031;-76
2022/08/21 01:49:52;;;;;;;7.20;1.98;;;;;;;;;;1024700;28;20530;-76
2022/08/21 01:50:23;;;;;;;3.47;1.40;;;;;;;;;;1024460;28;20027;-76
2022/08/21 01:50:53;;;;;;;4.57;1.52;;;;;;;;;;1024317;29;20113;-76
2022/08/21 01:51:24;;;;;;;9.02;2.75;;;;;;;;;;1024155;29;20031;-76
2022/08/21 01:51:55;;;;;;;1.92;0.93;;;;;;;;;;1024429;28;20562;-76
2022/08/21 01:52:25;;;;;;;4.55;1.50;;;;;;;;;;1024221;29;20087;-76
2022/08/21 01:52:56;;;;;;;3.00;1.63;;;;;;;;;;1024622;28;20038;-76
2022/08/21 01:53:27;;;;;;;2.58;1.00;;;;;;;;;;1024552;28;20479;-76
2022/08/21 01:53:57;;;;;;;5.90;1.25;;;;;;;;;;1024690;28;20520;-76
2022/08/21 01:54:28;;;;;;;2.53;1.05;;;;;;;;;;1024164;29;20031;-76
2022/08/21 01:54:59;;;;;;;3.50;1.63;;;;;;;;;;1024241;29;20031;-76
2022/08/21 01:55:30;;;;;;;3.40;1.60;;;;;;;;;;1020249;29;20031;-76
2022/08/21 01:56:01;;;;;;;3.72;1.50;;;;;;;;;;1016489;29;20031;-76
2022/08/21 01:56:35;;;;;;;3.20;1.48;;;;;;;;;;1020333;29;20055;-76
2022/08/21 01:57:06;;;;;;;2.42;0.95;;;;;;;;;;1020841;29;20507;-76
2022/08/21 01:57:37;;;;;;;3.33;1.25;;;;;;;;;;1024361;29;20125;-76
2022/08/21 01:58:07;;;;;;;4.97;1.67;;;;;;;;;;1024197;29;20480;-76
2022/08/21 01:58:39;;;;;;;14.68;3.28;;;;;;;;;;1024342;29;20035;-76
2022/08/21 01:59:10;;;;;;;6.43;2.42;;;;;;;;;;1024120;29;20547;-76
2022/08/21 01:59:41;;;;;;;13.48;2.42;;;;;;;;;;1024214;29;20086;-76
2022/08/21 02:00:12;;;;;;;6.30;1.42;;;;;;;;;;1024222;29;20113;-76
2022/08/21 02:00:43;;;;;;;8.38;1.52;;;;;;;;;;1024002;29;20098;-76
2022/08/21 02:01:14;;;;;;;4.57;1.10;;;;;;;;;;1020413;29;20028;-76
2022/08/21 02:01:45;;;;;;;15.25;1.55;;;;;;;;;;1020584;29;20087;-76
2022/08/21 02:02:15;;;;;;;8.15;1.58;;;;;;;;;;1020465;29;20024;-76
2022/08/21 02:02:46;;;;;;;2.83;0.95;;;;;;;;;;1020727;29;20058;-76
2022/08/21 02:03:16;;;;;;;4.10;1.30;;;;;;;;;;1020097;29;20024;-76
2022/08/21 02:03:47;;;;;;;10.43;1.35;;;;;;;;;;1016435;29;20100;-76
2022/08/21 02:04:17;;;;;;;5.60;1.83;;;;;;;;;;1016259;29;20045;-76
2022/08/21 02:04:48;;;;;;;5.35;1.52;;;;;;;;;;1017072;29;20028;-76
2022/08/21 02:05:19;;;;;;;4.22;0.95;;;;;;;;;;1024167;29;20037;-76
2022/08/21 02:05:50;;;;;;;12.23;1.80;;;;;;;;;;1024222;29;20117;-76
2022/08/21 02:06:21;;;;;;;2.08;1.35;;;;;;;;;;1024113;29;20078;-76
2022/08/21 02:06:51;;;;;;;11.43;2.08;;;;;;;;;;1024306;28;20569;-76
2022/08/21 02:07:22;;;;;;;4.22;1.58;;;;;;;;;;1024080;29;20032;-76
2022/08/21 02:07:53;;;;;;;3.78;1.40;;;;;;;;;;1024628;29;20027;-76
2022/08/21 02:08:23;;;;;;;10.40;2.30;;;;;;;;;;1024409;28;20019;-76
2022/08/21 02:08:54;;;;;;;3.85;1.05;;;;;;;;;;1024626;28;20030;-76
2022/08/21 02:09:25;;;;;;;6.90;1.98;;;;;;;;;;1024440;28;20027;-76
2022/08/21 02:09:55;;;;;;;7.32;1.30;;;;;;;;;;1024522;28;20063;-76
2022/08/21 02:10:28;;;;;;;5.05;1.67;;;;;;;;;;1024059;29;20035;-76
2022/08/21 02:10:58;;;;;;;4.22;1.35;;;;;;;;;;1024222;29;20027;-76
2022/08/21 02:11:29;;;;;;;7.05;1.65;;;;;;;;;;1024239;29;20114;-76
2022/08/21 02:11:59;;;;;;;3.13;0.85;;;;;;;;;;1020520;29;20042;-76
2022/08/21 02:12:30;;;;;;;3.35;1.60;;;;;;;;;;1024257;29;20595;-76
2022/08/21 02:13:01;;;;;;;8.52;1.92;;;;;;;;;;1024156;29;20023;-76
2022/08/21 02:13:31;;;;;;;11.63;1.67;;;;;;;;;;1024260;29;20027;-76
2022/08/21 02:14:02;;;;;;;3.95;1.23;;;;;;;;;;1024510;28;20054;-76
2022/08/21 02:14:33;;;;;;;5.65;1.50;;;;;;;;;;1024545;28;20118;-76
2022/08/21 02:15:04;;;;;;;4.30;1.80;;;;;;;;;;1024512;29;20464;-76
2022/08/21 02:15:35;;;;;;;9.88;2.00;;;;;;;;;;1024529;28;20066;-76
2022/08/21 02:16:07;;;;;;;6.57;1.73;;;;;;;;;;1024044;29;20105;-76
2022/08/21 02:16:38;;;;;;;6.35;2.00;;;;;;;;;;1020199;29;20027;-76
2022/08/21 02:17:09;;;;;;;6.28;1.45;;;;;;;;;;1020110;29;20031;-76
2022/08/21 02:17:41;;;;;;;3.38;1.50;;;;;;;;;;1020612;29;20464;-76
2022/08/21 02:18:12;;;;;;;6.68;2.00;;;;;;;;;;1020443;29;20114;-76
2022/08/21 02:18:43;;;;;;;4.57;1.70;;;;;;;;;;1024192;29;20043;-76
2022/08/21 02:19:14;;;;;;;9.50;1.30;;;;;;;;;;1024126;29;20059;-76
2022/08/21 02:19:45;;;;;;;7.07;1.50;;;;;;;;;;1024308;29;20027;-76
2022/08/21 02:20:22;;;;;;;7.72;2.15;;;;;;;;;;1024392;28;20066;-76
2022/08/21 02:20:52;;;;;;;11.93;1.83;;;;;;;;;;1024559;28;20058;-76
2022/08/21 02:21:23;;;;;;;6.63;2.08;;;;;;;;;;1024383;28;20384;-76
2022/08/21 02:21:54;;;;;;;5.00;1.50;;;;;;;;;;1024612;28;20125;-76
2022/08/21 02:22:24;;;;;;;6.15;1.65;;;;;;;;;;1024284;28;20077;-77
2022/08/21 02:22:55;;;;;;;6.32;1.42;;;;;;;;;;1024617;28;20038;-76
2022/08/21 02:23:26;;;;;;;11.05;1.45;;;;;;;;;;1024397;28;20118;-76
2022/08/21 02:23:56;;;;;;;3.60;1.80;;;;;;;;;;1024078;29;20391;-76
2022/08/21 02:24:27;;;;;;;6.85;1.20;;;;;;;;;;1024152;29;20162;-76
2022/08/21 02:24:57;;;;;;;6.43;1.35;;;;;;;;;;1024192;29;20038;-76
2022/08/21 02:25:28;;;;;;;6.53;2.33;;;;;;;;;;1024240;29;20042;-76
2022/08/21 02:26:00;;;;;;;4.43;1.58;;;;;;;;;;1024456;28;20110;-76
2022/08/21 02:26:30;;;;;;;3.88;1.70;;;;;;;;;;1024502;28;20038;-76
2022/08/21 02:27:01;;;;;;;6.13;2.33;;;;;;;;;;1024408;28;20058;-76
2022/08/21 02:27:37;;;;;;;7.22;1.52;;;;;;;;;;1024016;28;20035;-76
2022/08/21 02:28:10;;;;;;;5.07;1.80;;;;;;;;;;1024137;29;20058;-76
2022/08/21 02:28:41;;;;;;;5.15;1.58;;;;;;;;;;1024247;29;20027;-76
2022/08/21 02:29:12;;;;;;;4.22;2.00;;;;;;;;;;1021217;29;20031;-76
2022/08/21 02:29:42;;;;;;;6.60;2.13;;;;;;;;;;1024198;29;20035;-76
2022/08/21 02:30:15;;;;;;;6.93;1.80;;;;;;;;;;1024076;29;20031;-76
2022/08/21 02:30:47;;;;;;;6.72;2.10;;;;;;;;;;1020631;29;20526;-76
2022/08/21 02:31:18;;;;;;;9.88;2.05;;;;;;;;;;1023945;29;20031;-76
2022/08/21 02:31:48;;;;;;;8.57;2.08;;;;;;;;;;1024157;28;20508;-76
2022/08/21 02:32:19;;;;;;;4.88;1.70;;;;;;;;;;1020293;29;20117;-76
2022/08/21 02:32:50;;;;;;;4.03;1.83;;;;;;;;;;1020162;29;20039;-76
2022/08/21 02:33:21;;;;;;;6.78;2.05;;;;;;;;;;1020100;29;20075;-76
2022/08/21 02:33:51;;;;;;;5.15;2.55;;;;;;;;;;1020525;29;20126;-76
2022/08/21 02:34:22;;;;;;;11.15;1.83;;;;;;;;;;1023967;29;20027;-76
2022/08/21 02:34:53;;;;;;;14.60;2.83;;;;;;;;;;1024272;29;20061;-76
2022/08/21 02:35:24;;;;;;;9.07;1.42;;;;;;;;;;1023902;29;20023;-77
2022/08/21 02:35:55;;;;;;;5.15;2.22;;;;;;;;;;1024418;28;20042;-76
2022/08/21 02:36:25;;;;;;;4.38;1.80;;;;;;;;;;1023932;29;20027;-76
2022/08/21 02:36:56;;;;;;;4.72;1.35;;;;;;;;;;1024088;28;20023;-76
2022/08/21 02:37:26;;;;;;;6.85;1.25;;;;;;;;;;1024151;29;20035;-76
2022/08/21 02:37:59;;;;;;;5.03;1.60;;;;;;;;;;1024191;29;20019;-76
2022/08/21 02:38:30;;;;;;;3.58;1.83;;;;;;;;;;1024100;29;20058;-76
2022/08/21 02:39:01;;;;;;;12.57;1.90;;;;;;;;;;1024117;29;20027;-76
2022/08/21 02:39:32;;;;;;;4.18;1.50;;;;;;;;;;1024420;28;20443;-76
2022/08/21 02:40:03;;;;;;;10.95;1.80;;;;;;;;;;1024385;28;20041;-76
2022/08/21 02:40:35;;;;;;;6.50;1.33;;;;;;;;;;1024402;28;20034;-76
2022/08/21 02:41:07;;;;;;;11.57;1.27;;;;;;;;;;1024378;28;20127;-76
2022/08/21 02:41:37;;;;;;;4.45;1.23;;;;;;;;;;1024486;28;20023;-76
2022/08/21 02:42:08;;;;;;;12.70;1.48;;;;;;;;;;1024256;28;20121;-76
2022/08/21 02:42:39;;;;;;;7.97;1.58;;;;;;;;;;1024428;29;20122;-76
2022/08/21 02:43:10;;;;;;;8.70;1.88;;;;;;;;;;1024351;28;20055;-75
2022/08/21 02:43:41;;;;;;;5.13;1.23;;;;;;;;;;1024063;29;20027;-76
2022/08/21 02:44:12;;;;;;;2.72;1.50;;;;;;;;;;1019996;29;20052;-76
2022/08/21 02:44:42;;;;;;;14.02;1.70;;;;;;;;;;1020229;29;20036;-76
2022/08/21 02:45:13;;;;;;;4.38;1.77;;;;;;;;;;1016227;29;20036;-76
2022/08/21 02:45:44;;;;;;;6.13;2.10;;;;;;;;;;1020324;29;20066;-76
2022/08/21 02:46:17;;;;;;;13.95;2.80;;;;;;;;;;1024023;29;20051;-76
2022/08/21 02:46:47;;;;;;;19.17;2.17;;;;;;;;;;1024112;28;20023;-76
2022/08/21 02:47:18;;;;;;;9.73;2.42;;;;;;;;;;1024064;29;20098;-76
2022/08/21 02:47:56;;;;;;;8.45;2.00;;;;;;;;;;1024464;28;20030;-76
2022/08/21 02:48:30;;;;;;;10.48;2.13;;;;;;;;;;1024000;29;20020;-76
2022/08/21 02:49:00;;;;;;;14.85;2.05;;;;;;;;;;1024002;29;20031;-76
2022/08/21 02:49:31;;;;;;;5.40;1.75;;;;;;;;;;1024111;29;20031;-76
2022/08/21 02:50:01;;;;;;;5.60;2.25;;;;;;;;;;1024126;29;20495;-76
2022/08/21 02:50:33;;;;;;;9.40;1.98;;;;;;;;;;1024401;28;20034;-76
2022/08/21 02:51:08;;;;;;;10.43;1.90;;;;;;;;;;1024353;28;20042;-76
2022/08/21 02:51:39;;;;;;;2.33;1.00;;;;;;;;;;1024002;29;20035;-76
2022/08/21 02:52:10;;;;;;;8.60;1.02;;;;;;;;;;1023939;28;20027;-76
2022/08/21 02:52:40;;;;;;;7.10;1.48;;;;;;;;;;1020074;29;20031;-76
2022/08/21 02:53:14;;;;;;;12.05;1.63;;;;;;;;;;1020327;29;20028;-76
2022/08/21 02:53:45;;;;;;;8.00;1.45;;;;;;;;;;1024192;29;20042;-76
2022/08/21 02:54:16;;;;;;;8.90;1.52;;;;;;;;;;1023861;29;20081;-76
2022/08/21 02:54:46;;;;;;;6.25;1.40;;;;;;;;;;1024177;29;20526;-76
2022/08/21 02:55:17;;;;;;;6.75;1.98;;;;;;;;;;1023939;29;20547;-76
2022/08/21 02:55:49;;;;;;;8.68;1.33;;;;;;;;;;1024181;29;20403;-76
2022/08/21 02:56:21;;;;;;;5.97;2.88;;;;;;;;;;1024278;28;20031;-76
2022/08/21 02:56:51;;;;;;;14.02;2.42;;;;;;;;;;1023981;28;20580;-76
2022/08/21 02:57:22;;;;;;;5.45;1.02;;;;;;;;;;1023959;29;20031;-76
2022/08/21 02:57:53;;;;;;;3.95;1.30;;;;;;;;;;1024179;29;20027;-76
2022/08/21 02:58:25;;;;;;;9.35;1.45;;;;;;;;;;1023958;29;20032;-76
2022/08/21 02:58:56;;;;;;;6.97;1.30;;;;;;;;;;1023980;29;20056;-76
2022/08/21 02:59:26;;;;;;;4.07;1.25;;;;;;;;;;1023997;29;20138;-76
2022/08/21 02:59:57;;;;;;;13.25;2.10;;;;;;;;;;1024013;29;20058;-76
2022/08/21 03:00:29;;;;;;;2.75;1.67;;;;;;;;;;1023975;29;20411;-76
2022/08/21 03:01:00;;;;;;;10.70;1.42;;;;;;;;;;1020359;29;20487;-76
2022/08/21 03:01:30;;;;;;;10.95;1.90;;;;;;;;;;1020411;29;20034;-76
2022/08/21 03:02:01;;;;;;;6.47;1.50;;;;;;;;;;1020321;29;20036;-76
2022/08/21 03:02:32;;;;;;;14.52;1.92;;;;;;;;;;1020373;29;20448;-76
2022/08/21 03:03:03;;;;;;;4.18;0.85;;;;;;;;;;1020385;29;20035;-76
2022/08/21 03:03:35;;;;;;;5.32;1.20;;;;;;;;;;1020398;29;20032;-76
2022/08/21 03:04:05;;;;;;;3.00;1.20;;;;;;;;;;1020335;29;20036;-76
2022/08/21 03:04:36;;;;;;;4.57;0.88;;;;;;;;;;1020410;29;20082;-76
2022/08/21 03:05:09;;;;;;;5.03;1.63;;;;;;;;;;1023354;29;20424;-76
2022/08/21 03:05:40;;;;;;;6.72;1.48;;;;;;;;;;1023925;29;20125;-76
2022/08/21 03:06:12;;;;;;;11.93;1.52;;;;;;;;;;1019945;29;20031;-76
2022/08/21 03:06:42;;;;;;;7.07;1.30;;;;;;;;;;1020138;29;20499;-76